createdAt,value
2022-12-31T00:00:38.914Z,11.69
2022-12-31T00:03:09.800Z,11.70
2022-12-31T00:05:37.647Z,11.71
2022-12-31T00:08:05.193Z,11.70
2022-12-31T00:10:39.807Z,11.71
2022-12-31T00:13:12.083Z,11.71
2022-12-31T00:15:41.205Z,11.70
2022-12-31T00:18:09.322Z,11.70
2022-12-31T00:20:42.721Z,11.74
2022-12-31T00:23:11.514Z,11.72
2022-12-31T00:25:38.965Z,11.72
2022-12-31T00:28:06.323Z,11.73
2022-12-31T00:30:34.714Z,11.73
2022-12-31T00:33:01.961Z,11.74
2022-12-31T00:35:29.391Z,11.73
2022-12-31T00:37:56.635Z,11.75
2022-12-31T00:40:23.905Z,11.77
2022-12-31T00:42:51.221Z,11.78
2022-12-31T00:45:18.443Z,11.78
2022-12-31T00:47:45.684Z,11.79
2022-12-31T00:50:13.144Z,11.82
2022-12-31T00:52:40.338Z,11.83
2022-12-31T00:55:08.522Z,11.83
2022-12-31T00:57:35.791Z,11.87
2022-12-31T01:00:04.065Z,11.85
2022-12-31T01:02:31.710Z,11.84
2022-12-31T01:04:58.985Z,11.85
2022-12-31T01:07:26.317Z,11.86
2022-12-31T01:09:53.904Z,11.86
2022-12-31T01:12:21.183Z,11.86
2022-12-31T01:14:48.436Z,11.88
2022-12-31T01:17:17.258Z,11.88
2022-12-31T01:19:44.524Z,11.88
2022-12-31T01:22:11.824Z,11.88
2022-12-31T01:24:39.123Z,11.88
2022-12-31T01:27:06.437Z,11.87
2022-12-31T01:29:33.797Z,11.84
2022-12-31T01:32:01.036Z,11.86
2022-12-31T01:34:28.296Z,11.84
2022-12-31T01:36:55.527Z,11.84
2022-12-31T01:39:22.791Z,11.81
2022-12-31T01:41:50.095Z,11.82
2022-12-31T01:44:26.544Z,11.82
2022-12-31T01:47:04.175Z,11.81
2022-12-31T01:49:44.743Z,11.80
2022-12-31T01:52:32.661Z,11.77
2022-12-31T01:55:16.513Z,11.76
2022-12-31T01:57:48.139Z,11.74
2022-12-31T02:00:16.725Z,11.75
2022-12-31T02:02:44.833Z,11.75
2022-12-31T02:05:49.550Z,11.71
2022-12-31T02:08:18.101Z,11.72
2022-12-31T02:10:48.479Z,11.71
2022-12-31T02:13:16.315Z,11.63
2022-12-31T02:15:50.193Z,11.57
2022-12-31T02:18:39.301Z,11.48
2022-12-31T02:21:28.988Z,11.42
2022-12-31T02:24:55.459Z,11.36
2022-12-31T02:28:32.627Z,11.32
2022-12-31T02:31:18.861Z,11.25
2022-12-31T02:34:05.315Z,11.23
2022-12-31T02:36:42.777Z,11.21
2022-12-31T02:39:13.385Z,11.20
2022-12-31T02:41:53.753Z,11.20
2022-12-31T02:44:32.241Z,11.19
2022-12-31T02:47:32.242Z,11.19
2022-12-31T02:50:31.962Z,11.17
2022-12-31T02:53:41.057Z,11.17
2022-12-31T02:56:28.099Z,11.15
2022-12-31T02:59:41.650Z,11.11
2022-12-31T03:02:16.925Z,11.08
2022-12-31T03:04:56.436Z,11.06
2022-12-31T03:07:33.006Z,11.03
2022-12-31T03:10:01.359Z,11.02
2022-12-31T03:12:48.942Z,11.00
2022-12-31T03:15:33.206Z,11.00
2022-12-31T03:18:17.987Z,10.98
2022-12-31T03:21:09.432Z,10.96
2022-12-31T03:23:50.261Z,10.99
2022-12-31T03:26:17.549Z,10.98
2022-12-31T03:28:48.052Z,11.00
2022-12-31T03:31:16.460Z,11.01
2022-12-31T03:33:43.866Z,11.02
2022-12-31T03:36:15.449Z,11.01
2022-12-31T03:38:42.792Z,11.01
2022-12-31T03:41:11.909Z,11.00
2022-12-31T03:43:39.299Z,11.02
2022-12-31T03:46:06.833Z,11.00
2022-12-31T03:48:34.219Z,11.01
2022-12-31T03:51:01.402Z,11.02
2022-12-31T03:53:28.624Z,11.03
2022-12-31T03:55:55.912Z,11.03
2022-12-31T03:58:23.293Z,11.03
2022-12-31T04:00:51.195Z,11.05
2022-12-31T04:03:19.492Z,11.08
2022-12-31T04:05:55.323Z,11.09
2022-12-31T04:08:23.102Z,11.11
2022-12-31T04:10:50.792Z,11.11
2022-12-31T04:13:18.113Z,11.15
2022-12-31T04:15:45.854Z,11.17
2022-12-31T04:18:14.402Z,11.16
2022-12-31T04:20:41.559Z,11.17
2022-12-31T04:23:08.798Z,11.16
2022-12-31T04:25:36.015Z,11.13
2022-12-31T04:28:03.384Z,11.09
2022-12-31T04:30:30.560Z,11.07
2022-12-31T04:32:57.932Z,11.04
2022-12-31T04:35:25.461Z,11.05
2022-12-31T04:37:52.717Z,11.04
2022-12-31T04:40:19.971Z,11.06
2022-12-31T04:42:47.145Z,11.05
2022-12-31T04:45:14.396Z,11.06
2022-12-31T04:47:41.573Z,11.08
2022-12-31T04:50:10.390Z,11.08
2022-12-31T04:52:42.665Z,11.09
2022-12-31T04:55:11.005Z,11.09
2022-12-31T04:57:38.246Z,11.07
2022-12-31T05:00:06.659Z,11.06
2022-12-31T05:02:34.069Z,11.06
2022-12-31T05:05:01.447Z,11.06
2022-12-31T05:07:28.633Z,11.06
2022-12-31T05:09:55.927Z,11.07
2022-12-31T05:12:23.197Z,11.03
2022-12-31T05:14:50.387Z,11.07
2022-12-31T05:17:17.635Z,11.05
2022-12-31T05:19:44.856Z,11.04
2022-12-31T05:22:30.184Z,11.06
2022-12-31T05:25:01.266Z,11.07
2022-12-31T05:27:31.237Z,11.09
2022-12-31T05:29:59.823Z,11.10
2022-12-31T05:32:27.344Z,11.09
2022-12-31T05:34:54.706Z,11.11
2022-12-31T05:37:22.010Z,11.10
2022-12-31T05:39:49.438Z,11.12
2022-12-31T05:42:16.699Z,11.13
2022-12-31T05:44:44.050Z,11.13
2022-12-31T05:47:11.364Z,11.15
2022-12-31T05:49:38.693Z,11.11
2022-12-31T05:52:06.739Z,11.16
2022-12-31T05:54:34.405Z,11.16
2022-12-31T05:57:01.726Z,11.18
2022-12-31T05:59:30.094Z,11.19
2022-12-31T06:01:57.920Z,11.22
2022-12-31T06:04:25.651Z,11.24
2022-12-31T06:06:53.104Z,11.32
2022-12-31T06:09:21.054Z,11.41
2022-12-31T06:11:49.504Z,11.49
2022-12-31T06:14:17.471Z,11.57
2022-12-31T06:16:44.659Z,11.61
2022-12-31T06:19:12.025Z,11.63
2022-12-31T06:21:39.290Z,11.67
2022-12-31T06:24:07.343Z,11.74
2022-12-31T06:26:34.874Z,11.80
2022-12-31T06:29:04.924Z,11.87
2022-12-31T06:31:32.336Z,11.95
2022-12-31T06:34:00.511Z,12.02
2022-12-31T06:36:27.947Z,12.14
2022-12-31T06:38:55.505Z,12.22
2022-12-31T06:41:22.896Z,12.31
2022-12-31T06:43:50.164Z,12.36
2022-12-31T06:46:21.914Z,12.43
2022-12-31T06:48:49.243Z,12.45
2022-12-31T06:51:21.077Z,12.52
2022-12-31T06:53:51.647Z,12.54
2022-12-31T06:56:33.843Z,12.59
2022-12-31T06:59:03.424Z,12.63
2022-12-31T07:02:09.844Z,12.69
2022-12-31T07:05:22.478Z,12.90
2022-12-31T07:08:31.429Z,13.18
2022-12-31T07:11:52.623Z,13.41
2022-12-31T07:14:46.403Z,13.56
2022-12-31T07:17:43.567Z,13.70
2022-12-31T07:20:16.499Z,13.63
2022-12-31T07:22:46.109Z,13.51
2022-12-31T07:25:18.999Z,13.40
2022-12-31T07:28:35.262Z,13.32
2022-12-31T07:31:33.884Z,13.23
2022-12-31T07:34:36.887Z,13.15
2022-12-31T07:37:34.841Z,13.16
2022-12-31T07:40:42.711Z,13.15
2022-12-31T07:44:00.549Z,13.19
2022-12-31T07:46:44.745Z,13.27
2022-12-31T07:49:14.003Z,13.49
2022-12-31T07:51:42.792Z,13.56
2022-12-31T07:54:14.204Z,13.52
2022-12-31T07:56:43.944Z,13.49
2022-12-31T08:00:01.132Z,13.48
2022-12-31T08:02:53.533Z,13.56
2022-12-31T08:06:09.172Z,13.55
2022-12-31T08:09:39.543Z,13.50
2022-12-31T08:12:09.081Z,13.46
2022-12-31T08:14:47.908Z,13.43
2022-12-31T08:17:18.959Z,13.44
2022-12-31T08:19:47.058Z,13.43
2022-12-31T08:23:01.577Z,13.43
2022-12-31T08:25:56.996Z,13.44
2022-12-31T08:29:19.110Z,13.42
2022-12-31T08:32:21.729Z,13.42
2022-12-31T08:35:31.361Z,13.45
2022-12-31T08:38:39.528Z,13.49
2022-12-31T08:41:43.429Z,13.56
2022-12-31T08:44:34.524Z,13.68
2022-12-31T08:47:35.510Z,13.79
2022-12-31T08:50:07.657Z,13.90
2022-12-31T08:52:35.527Z,13.99
2022-12-31T08:55:03.452Z,14.08
2022-12-31T08:57:50.562Z,14.14
2022-12-31T09:00:20.577Z,14.02
2022-12-31T09:02:59.616Z,13.85
2022-12-31T09:05:43.381Z,13.73
2022-12-31T09:09:01.267Z,13.63
2022-12-31T09:12:12.186Z,13.55
2022-12-31T09:15:06.398Z,13.54
2022-12-31T09:17:51.072Z,13.54
2022-12-31T09:20:42.172Z,13.55
2022-12-31T09:23:12.140Z,13.65
2022-12-31T09:26:21.580Z,13.78
2022-12-31T09:29:14.729Z,13.91
2022-12-31T09:32:34.351Z,13.98
2022-12-31T09:35:25.694Z,14.08
2022-12-31T09:38:31.677Z,14.05
2022-12-31T09:41:44.736Z,13.92
2022-12-31T09:44:55.501Z,13.74
2022-12-31T09:48:28.159Z,13.65
2022-12-31T09:51:12.548Z,13.58
2022-12-31T09:54:15.852Z,13.54
2022-12-31T09:57:53.507Z,13.50
2022-12-31T10:01:21.586Z,13.47
2022-12-31T10:04:56.381Z,13.45
2022-12-31T10:08:00.854Z,13.47
2022-12-31T10:10:50.069Z,13.47
2022-12-31T10:14:49.100Z,13.50
2022-12-31T10:18:14.348Z,13.48
2022-12-31T10:21:02.074Z,13.46
2022-12-31T10:24:08.765Z,13.48
2022-12-31T10:27:14.159Z,13.47
2022-12-31T10:30:11.462Z,13.47
2022-12-31T10:33:10.595Z,13.47
2022-12-31T10:36:19.031Z,13.49
2022-12-31T10:39:28.263Z,13.49
2022-12-31T10:42:40.377Z,13.49
2022-12-31T10:46:22.801Z,13.54
2022-12-31T10:49:22.259Z,13.57
2022-12-31T10:52:41.509Z,13.62
2022-12-31T10:56:00.132Z,13.68
2022-12-31T10:58:42.180Z,13.80
2022-12-31T11:01:30.576Z,13.93
2022-12-31T11:05:05.402Z,14.03
2022-12-31T11:07:41.426Z,14.13
2022-12-31T11:10:42.797Z,14.21
2022-12-31T11:14:26.443Z,14.33
2022-12-31T11:17:21.223Z,14.43
2022-12-31T11:20:29.421Z,14.49
2022-12-31T11:23:30.917Z,14.55
2022-12-31T11:26:46.696Z,14.62
2022-12-31T11:29:57.882Z,14.67
2022-12-31T11:33:14.004Z,14.64
2022-12-31T11:36:30.381Z,14.77
2022-12-31T11:40:01.552Z,14.86
2022-12-31T11:43:04.908Z,14.94
2022-12-31T11:46:16.864Z,14.99
2022-12-31T11:48:52.753Z,15.01
2022-12-31T11:51:52.490Z,15.01
2022-12-31T11:55:25.910Z,14.81
2022-12-31T11:57:54.683Z,14.75
2022-12-31T12:00:26.744Z,14.73
2022-12-31T12:03:06.041Z,14.64
2022-12-31T12:05:35.504Z,14.59
2022-12-31T12:08:03.320Z,14.58
2022-12-31T12:10:52.681Z,14.52
2022-12-31T12:13:28.163Z,14.52
2022-12-31T12:16:02.659Z,14.43
2022-12-31T12:18:47.754Z,14.36
2022-12-31T12:21:25.404Z,14.22
2022-12-31T12:24:16.868Z,14.08
2022-12-31T12:26:45.521Z,13.97
2022-12-31T12:29:26.520Z,13.87
2022-12-31T12:32:25.618Z,13.78
2022-12-31T12:34:53.830Z,13.70
2022-12-31T12:37:34.497Z,13.64
2022-12-31T12:40:22.111Z,13.60
2022-12-31T12:42:52.756Z,13.54
2022-12-31T12:45:36.420Z,13.52
2022-12-31T12:48:31.324Z,13.52
2022-12-31T12:51:00.043Z,13.49
2022-12-31T12:53:54.879Z,13.46
2022-12-31T12:56:47.072Z,13.50
2022-12-31T12:59:51.738Z,13.51
2022-12-31T13:03:07.247Z,13.52
2022-12-31T13:06:26.239Z,13.52
2022-12-31T13:09:55.003Z,13.55
2022-12-31T13:13:22.133Z,13.60
2022-12-31T13:15:47.696Z,13.72
2022-12-31T13:18:54.875Z,13.88
2022-12-31T13:21:59.801Z,14.03
2022-12-31T13:24:52.227Z,14.13
2022-12-31T13:27:45.064Z,14.24
2022-12-31T13:30:36.968Z,14.30
2022-12-31T13:33:26.465Z,14.41
2022-12-31T13:36:02.048Z,14.47
2022-12-31T13:38:34.134Z,14.47
2022-12-31T13:41:45.335Z,14.48
2022-12-31T13:44:32.163Z,14.49
2022-12-31T13:47:27.462Z,14.57
2022-12-31T13:50:26.756Z,14.66
2022-12-31T13:53:07.129Z,14.75
2022-12-31T13:55:56.705Z,14.86
2022-12-31T13:59:20.736Z,14.93
2022-12-31T14:02:18.986Z,14.95
2022-12-31T14:04:58.580Z,14.96
2022-12-31T14:07:57.114Z,14.97
2022-12-31T14:11:24.408Z,14.99
2022-12-31T14:14:54.705Z,15.05
2022-12-31T14:17:47.960Z,15.11
2022-12-31T14:20:52.360Z,15.13
2022-12-31T14:23:59.142Z,15.14
2022-12-31T14:26:50.377Z,15.17
2022-12-31T14:29:29.899Z,15.19
2022-12-31T14:32:48.099Z,15.18
2022-12-31T14:35:55.140Z,15.17
2022-12-31T14:39:02.092Z,15.18
2022-12-31T14:42:12.239Z,15.17
2022-12-31T14:45:00.185Z,15.16
2022-12-31T14:48:21.558Z,15.10
2022-12-31T14:50:50.018Z,15.11
2022-12-31T14:53:28.408Z,15.06
2022-12-31T14:56:29.534Z,15.08
2022-12-31T14:59:02.479Z,15.06
2022-12-31T15:01:30.596Z,15.04
2022-12-31T15:03:58.737Z,15.04
2022-12-31T15:06:47.209Z,15.00
2022-12-31T15:10:21.877Z,14.98
2022-12-31T15:13:19.955Z,14.97
2022-12-31T15:16:07.976Z,14.96
2022-12-31T15:19:16.222Z,14.98
2022-12-31T15:22:33.615Z,14.95
2022-12-31T15:25:01.561Z,15.00
2022-12-31T15:27:38.502Z,14.98
2022-12-31T15:30:07.242Z,14.96
2022-12-31T15:32:46.710Z,14.96
2022-12-31T15:35:20.910Z,14.96
2022-12-31T15:38:11.341Z,14.94
2022-12-31T15:40:51.935Z,14.93
2022-12-31T15:43:25.254Z,14.92
2022-12-31T15:45:56.691Z,14.92
2022-12-31T15:48:55.433Z,14.93
2022-12-31T15:52:01.357Z,14.93
2022-12-31T15:54:43.016Z,14.93
2022-12-31T15:57:29.857Z,14.92
2022-12-31T16:00:06.076Z,14.88
2022-12-31T16:02:33.602Z,14.85
2022-12-31T16:05:01.191Z,14.82
2022-12-31T16:07:29.414Z,14.79
2022-12-31T16:10:04.168Z,14.77
2022-12-31T16:12:44.137Z,14.75
2022-12-31T16:15:26.361Z,14.74
2022-12-31T16:18:20.595Z,14.74
2022-12-31T16:20:51.983Z,14.71
2022-12-31T16:23:30.228Z,14.72
2022-12-31T16:26:05.429Z,14.68
2022-12-31T16:28:35.468Z,14.72
2022-12-31T16:31:16.805Z,14.66
2022-12-31T16:33:46.466Z,14.66
2022-12-31T16:36:24.092Z,14.65
2022-12-31T16:38:52.390Z,14.61
2022-12-31T16:41:22.135Z,14.58
2022-12-31T16:43:50.949Z,14.57
2022-12-31T16:46:30.959Z,14.56
2022-12-31T16:49:21.187Z,14.51
2022-12-31T16:51:49.665Z,14.48
2022-12-31T16:54:44.040Z,14.45
2022-12-31T16:57:24.676Z,14.42
2022-12-31T17:00:04.443Z,14.39
2022-12-31T17:02:47.768Z,14.43
2022-12-31T17:05:26.562Z,14.39
2022-12-31T17:07:53.997Z,14.40
2022-12-31T17:10:34.461Z,14.38
2022-12-31T17:13:30.204Z,14.39
2022-12-31T17:16:00.511Z,14.37
2022-12-31T17:18:38.545Z,14.36
2022-12-31T17:21:11.012Z,14.35
2022-12-31T17:23:41.021Z,14.34
2022-12-31T17:26:23.722Z,14.30
2022-12-31T17:28:55.370Z,14.28
2022-12-31T17:31:57.086Z,14.28
2022-12-31T17:34:31.020Z,14.26
2022-12-31T17:37:14.458Z,14.26
2022-12-31T17:39:55.352Z,14.27
2022-12-31T17:42:38.055Z,14.26
2022-12-31T17:45:22.336Z,14.28
2022-12-31T17:47:53.729Z,14.28
2022-12-31T17:50:28.629Z,14.26
2022-12-31T17:53:12.089Z,14.26
2022-12-31T17:55:45.432Z,14.25
2022-12-31T17:58:30.039Z,14.25
2022-12-31T18:00:58.745Z,14.22
2022-12-31T18:03:26.218Z,14.19
2022-12-31T18:05:54.141Z,14.18
2022-12-31T18:08:21.411Z,14.16
2022-12-31T18:10:48.966Z,14.14
2022-12-31T18:13:23.064Z,14.11
2022-12-31T18:15:50.921Z,14.11
2022-12-31T18:18:25.320Z,14.10
2022-12-31T18:21:07.971Z,14.08
2022-12-31T18:23:46.749Z,14.07
2022-12-31T18:26:21.765Z,14.08
2022-12-31T18:28:50.624Z,14.07
2022-12-31T18:31:22.210Z,14.08
2022-12-31T18:33:52.038Z,14.06
2022-12-31T18:36:22.490Z,14.04
2022-12-31T18:38:50.635Z,14.00
2022-12-31T18:41:27.753Z,13.98
2022-12-31T18:43:55.996Z,14.01
2022-12-31T18:46:25.303Z,13.99
2022-12-31T18:48:52.768Z,14.00
2022-12-31T18:51:31.392Z,13.98
2022-12-31T18:54:01.963Z,13.97
2022-12-31T18:56:29.514Z,13.93
2022-12-31T18:58:56.785Z,13.91
2022-12-31T19:01:33.286Z,13.88
2022-12-31T19:04:27.124Z,13.86
2022-12-31T19:06:57.289Z,13.86
2022-12-31T19:09:44.751Z,13.85
2022-12-31T19:12:15.259Z,13.84
2022-12-31T19:14:42.960Z,13.85
2022-12-31T19:19:36.696Z,13.85
2022-12-31T19:22:03.976Z,13.85
2022-12-31T19:24:31.866Z,13.82
2022-12-31T19:27:01.864Z,13.84
2022-12-31T19:29:29.206Z,13.87
2022-12-31T19:31:58.138Z,13.87
2022-12-31T19:34:25.519Z,13.85
2022-12-31T19:36:52.722Z,13.87
2022-12-31T19:39:21.695Z,13.88
2022-12-31T19:41:56.399Z,13.90
2022-12-31T19:44:26.008Z,13.91
2022-12-31T19:46:53.245Z,13.90
2022-12-31T19:49:20.522Z,13.89
2022-12-31T19:51:47.781Z,13.89
2022-12-31T19:54:15.115Z,13.89
2022-12-31T19:56:42.363Z,13.90
2022-12-31T19:59:11.533Z,13.90
2022-12-31T20:01:39.259Z,13.93
2022-12-31T20:04:06.882Z,13.93
2022-12-31T20:06:34.211Z,13.94
2022-12-31T20:09:03.620Z,13.94
2022-12-31T20:11:31.286Z,13.95
2022-12-31T20:13:58.690Z,13.97
2022-12-31T20:16:33.750Z,13.99
2022-12-31T20:19:00.998Z,14.02
2022-12-31T20:21:29.910Z,14.04
2022-12-31T20:23:57.339Z,14.09
2022-12-31T20:26:26.653Z,14.11
2022-12-31T20:28:54.504Z,14.14
2022-12-31T20:31:26.696Z,14.19
2022-12-31T20:33:55.215Z,14.23
2022-12-31T20:36:23.805Z,14.25
2022-12-31T20:38:51.298Z,14.25
2022-12-31T20:41:22.919Z,14.22
2022-12-31T20:43:53.725Z,14.25
2022-12-31T20:46:28.448Z,14.26
2022-12-31T20:49:00.908Z,14.25
2022-12-31T20:51:31.621Z,14.31
2022-12-31T20:54:07.595Z,14.36
2022-12-31T20:56:40.175Z,14.37
2022-12-31T20:59:10.121Z,14.39
2022-12-31T21:02:18.920Z,14.40
2022-12-31T21:04:26.089Z,14.42
2022-12-31T21:06:53.599Z,14.45
2022-12-31T21:09:20.854Z,14.47
2022-12-31T21:12:06.665Z,14.50
2022-12-31T21:14:33.867Z,14.52
2022-12-31T21:17:02.184Z,14.53
2022-12-31T21:19:29.335Z,14.57
2022-12-31T21:21:56.508Z,14.57
2022-12-31T21:24:24.223Z,14.59
2022-12-31T21:26:56.693Z,14.59
2022-12-31T21:29:23.943Z,14.63
2022-12-31T21:31:51.329Z,14.64
2022-12-31T21:34:18.533Z,14.66
2022-12-31T21:36:45.794Z,14.68
2022-12-31T21:39:13.138Z,14.71
2022-12-31T21:41:52.525Z,14.72
2022-12-31T21:44:28.734Z,14.75
2022-12-31T21:47:39.454Z,14.77
2022-12-31T21:50:08.651Z,14.81
2022-12-31T21:52:36.508Z,14.82
2022-12-31T21:55:24.371Z,14.84
2022-12-31T21:58:24.669Z,14.86
2022-12-31T22:00:58.787Z,14.91
2022-12-31T22:03:29.110Z,14.91
2022-12-31T22:06:12.405Z,14.91
2022-12-31T22:08:42.888Z,14.91
2022-12-31T22:11:13.204Z,14.91
2022-12-31T22:13:41.198Z,14.91
2022-12-31T22:16:09.465Z,14.91
2022-12-31T22:18:40.811Z,14.90
2022-12-31T22:21:19.270Z,14.91
2022-12-31T22:23:53.227Z,14.92
2022-12-31T22:26:28.644Z,14.96
2022-12-31T22:28:59.804Z,14.97
2022-12-31T22:31:32.621Z,14.99
2022-12-31T22:34:00.176Z,14.98
2022-12-31T22:36:27.411Z,15.00
2022-12-31T22:38:58.579Z,15.00
2022-12-31T22:41:28.264Z,14.99
2022-12-31T22:44:03.718Z,14.99
2022-12-31T22:46:33.283Z,14.99
2022-12-31T22:49:03.556Z,14.97
2022-12-31T22:51:56.485Z,14.99
2022-12-31T22:54:19.510Z,15.01
2022-12-31T22:56:46.731Z,15.03
2022-12-31T22:59:14.121Z,15.03
2022-12-31T23:01:41.416Z,15.04
2022-12-31T23:04:09.659Z,15.06
2022-12-31T23:06:43.583Z,15.09
2022-12-31T23:09:37.061Z,15.11
2022-12-31T23:12:09.800Z,15.12
2022-12-31T23:14:56.729Z,15.14
2022-12-31T23:17:46.240Z,15.14
2022-12-31T23:20:38.329Z,15.13
2022-12-31T23:23:11.507Z,15.15
2022-12-31T23:25:52.835Z,15.19
2022-12-31T23:28:25.793Z,15.20
2022-12-31T23:30:53.869Z,15.26
2022-12-31T23:33:25.898Z,15.29
2022-12-31T23:36:06.991Z,15.31
2022-12-31T23:38:34.320Z,15.34
2022-12-31T23:41:11.647Z,15.35
2022-12-31T23:43:38.932Z,15.37
2022-12-31T23:46:06.486Z,15.37
2022-12-31T23:48:33.894Z,15.40
2022-12-31T23:51:01.127Z,15.42
2022-12-31T23:53:28.371Z,15.43
2022-12-31T23:55:55.705Z,15.47
2022-12-31T23:58:22.948Z,15.49
